Time;durP1;ratioP1;P1;durP2;ratioP2;P2;SDS_P1;SDS_P2;PMS_P1;PMS_P2;Temp;Humidity;BMP_temperature;BMP_pressure;BME280_temperature;BME280_humidity;BME280_pressure;Samples;Min_cycle;Max_cycle;Signal;HPM_P1;HPM_P2
2021/08/09 00:01:31;;;;;;;31.47;5.80;;;;;;;18.60;68.94;100079.88;126869;1087;102886;-79
2021/08/09 00:04:19;;;;;;;5.90;5.30;;;;;;;18.62;68.99;100078.81;126655;1088;114335;-79
2021/08/09 00:07:08;;;;;;;5.83;5.27;;;;;;;18.62;68.91;100088.53;126787;1089;102895;-79
2021/08/09 00:09:55;;;;;;;6.57;4.63;;;;;;;18.61;69.01;100084.20;126701;1087;114172;-79
2021/08/09 00:12:43;;;;;;;6.63;5.13;;;;;;;18.61;69.03;100084.20;126836;1087;103069;-79
2021/08/09 00:15:32;;;;;;;7.40;5.20;;;;;;;18.60;69.18;100083.36;126700;1088;114232;-79
2021/08/09 00:18:21;;;;;;;6.47;5.50;;;;;;;18.58;69.07;100093.19;126782;1088;103541;-79
2021/08/09 00:21:10;;;;;;;7.37;6.00;;;;;;;18.55;69.35;100093.40;126710;1087;114255;-78
2021/08/09 00:23:58;;;;;;;6.17;5.23;;;;;;;18.54;69.36;100102.28;126792;1087;102924;-78
2021/08/09 00:26:46;;;;;;;7.47;6.30;;;;;;;18.51;69.39;100096.36;126694;1087;114457;-78
2021/08/09 00:29:33;;;;;;;9.40;6.27;;;;;;;18.49;69.57;100098.23;126765;1087;103417;-78
2021/08/09 00:32:21;;;;;;;8.27;5.67;;;;;;;18.48;69.90;100118.52;126685;1087;113247;-77
2021/08/09 00:35:09;;;;;;;7.40;5.10;;;;;;;18.46;69.87;100124.84;126793;1089;102916;-78
2021/08/09 00:37:57;;;;;;;6.30;5.70;;;;;;;18.42;69.79;100125.06;126801;1090;103196;-78
2021/08/09 00:40:46;;;;;;;7.13;5.23;;;;;;;18.40;70.00;100126.95;126660;1090;114061;-78
2021/08/09 00:43:34;;;;;;;5.63;4.87;;;;;;;18.39;69.89;100114.70;126861;1087;102872;-79
2021/08/09 00:46:23;;;;;;;5.50;5.00;;;;;;;18.40;69.74;100120.83;126642;1089;113965;-78
2021/08/09 00:49:13;;;;;;;7.17;5.40;;;;;;;18.40;70.10;100124.31;126757;1087;102927;-78
2021/08/09 00:52:04;;;;;;;5.70;5.03;;;;;;;18.38;70.02;100123.58;126700;1089;114386;-78
2021/08/09 00:54:53;;;;;;;5.73;4.80;;;;;;;18.37;70.04;100115.76;126793;1088;102894;-78
2021/08/09 00:57:41;;;;;;;6.27;5.40;;;;;;;18.36;70.28;100119.34;126701;1087;114206;-78
2021/08/09 01:00:29;;;;;;;8.07;6.40;;;;;;;18.34;70.63;100110.69;126788;1085;102869;-78
2021/08/09 01:03:18;;;;;;;8.50;5.73;;;;;;;18.29;70.85;100107.48;126725;1088;114045;-78
2021/08/09 01:06:05;;;;;;;;;;;;;;;18.26;70.90;100105.05;126798;1089;102642;-78
2021/08/09 01:09:35;;;;;;;6.30;5.63;;;;;;;18.21;71.09;100094.80;126736;1089;102839;-78
2021/08/09 01:12:35;;;;;;;8.27;6.20;;;;;;;18.17;71.33;100093.32;126510;1090;102868;-79
2021/08/09 01:15:31;;;;;;;7.93;5.50;;;;;;;18.14;71.51;100098.80;126397;1090;114064;-79
2021/08/09 01:18:23;;;;;;;6.60;5.53;;;;;;;18.11;71.39;100094.55;126511;1092;102858;-79
2021/08/09 01:21:13;;;;;;;7.98;5.48;;;;;;;18.09;71.46;100091.16;126392;1090;114099;-79
2021/08/09 01:24:27;;;;;;;6.03;5.43;;;;;;;18.07;71.71;100093.06;126313;1092;103348;-79
2021/08/09 01:27:28;;;;;;;6.83;5.33;;;;;;;18.03;71.72;100096.86;126405;1090;114236;-79
2021/08/09 01:30:16;;;;;;;6.37;5.70;;;;;;;18.01;71.85;100082.92;126516;1090;102923;-78
2021/08/09 01:33:09;;;;;;;6.87;5.87;;;;;;;17.98;72.01;100075.20;126477;1093;114366;-77
2021/08/09 01:36:02;;;;;;;6.97;5.67;;;;;;;17.99;72.00;100074.27;126520;1090;102913;-78
2021/08/09 01:38:52;;;;;;;9.90;5.60;;;;;;;17.97;72.24;100080.59;126458;1090;114482;-78
2021/08/09 01:41:43;;;;;;;7.73;5.97;;;;;;;17.96;72.38;100085.02;126510;1090;102926;-79
2021/08/09 01:44:31;;;;;;;6.10;5.50;;;;;;;17.96;71.99;100081.54;126401;1090;114430;-79
2021/08/09 01:47:20;;;;;;;6.40;5.10;;;;;;;17.95;72.19;100078.02;126506;1090;102995;-79
2021/08/09 01:50:11;;;;;;;6.60;4.83;;;;;;;17.93;72.15;100093.11;126790;1090;102848;-78
2021/08/09 01:52:58;;;;;;;5.90;5.07;;;;;;;17.91;72.51;100104.72;126718;1088;113979;-78
2021/08/09 01:55:49;;;;;;;6.57;5.70;;;;;;;17.85;72.45;100100.69;126849;1088;102888;-79
2021/08/09 01:58:38;;;;;;;5.17;4.70;;;;;;;17.82;72.46;100098.25;126641;1090;114183;-79
2021/08/09 02:01:27;;;;;;;7.40;5.10;;;;;;;17.79;72.71;100099.30;126795;1089;103012;-79
2021/08/09 02:04:17;;;;;;;6.90;4.80;;;;;;;17.77;72.68;100095.05;126711;1090;114077;-79
2021/08/09 02:07:05;;;;;;;6.80;4.67;;;;;;;17.78;72.72;100107.32;126705;1090;102980;-79
2021/08/09 02:09:53;;;;;;;5.67;4.80;;;;;;;17.79;72.56;100093.18;126708;1088;114273;-79
2021/08/09 02:12:54;;;;;;;4.73;4.20;;;;;;;17.80;72.47;100098.36;126761;1090;103042;-79
2021/08/09 02:16:00;;;;;;;4.87;3.90;;;;;;;17.83;72.51;100088.55;126730;1090;114102;-79
2021/08/09 02:19:37;;;;;;;4.80;4.40;;;;;;;17.89;72.41;100094.27;126783;1088;102936;-79
2021/08/09 02:22:44;;;;;;;7.33;4.10;;;;;;;17.95;72.42;100099.13;126686;1090;114217;-79
2021/08/09 02:25:35;;;;;;;4.67;4.27;;;;;;;17.97;72.32;100107.83;126646;1090;102962;-79
2021/08/09 02:28:28;;;;;;;3.90;3.50;;;;;;;17.97;72.28;100102.55;126523;1088;114260;-78
2021/08/09 02:31:17;;;;;;;4.83;4.23;;;;;;;18.01;72.12;100106.67;126762;1088;102644;-77
2021/08/09 02:34:07;;;;;;;7.10;5.13;;;;;;;18.04;72.44;100110.90;126605;1090;114287;-78
2021/08/09 02:36:57;;;;;;;4.77;4.10;;;;;;;18.00;72.19;100112.89;126798;1090;102850;-78
2021/08/09 02:39:46;;;;;;;4.70;4.30;;;;;;;17.98;72.35;100113.95;126528;1088;114491;-79
2021/08/09 02:42:36;;;;;;;5.33;4.33;;;;;;;17.94;72.11;100105.36;126774;1088;102898;-79
2021/08/09 02:45:24;;;;;;;5.30;4.33;;;;;;;17.92;72.12;100119.59;126670;1090;114249;-79
2021/08/09 02:48:16;;;;;;;4.30;3.90;;;;;;;17.91;72.21;100112.63;126797;1090;102927;-79
2021/08/09 02:51:05;;;;;;;4.75;3.55;;;;;;;17.89;72.11;100131.20;126678;1090;114394;-79
2021/08/09 02:53:54;;;;;;;4.93;3.70;;;;;;;17.87;72.06;100148.08;126607;1090;103031;-79
2021/08/09 02:56:45;;;;;;;4.03;3.63;;;;;;;17.88;72.20;100169.08;126659;1090;113384;-79
2021/08/09 02:59:34;;;;;;;4.33;3.80;;;;;;;17.91;72.23;100171.52;126796;1090;103036;-79
2021/08/09 03:02:25;;;;;;;5.10;3.70;;;;;;;17.92;72.14;100172.37;126801;1090;102951;-79
2021/08/09 03:05:17;;;;;;;6.10;4.03;;;;;;;17.95;72.08;100173.02;126679;1090;113938;-79
2021/08/09 03:08:09;;;;;;;7.73;5.47;;;;;;;18.01;72.14;100175.28;126741;1090;102911;-79
2021/08/09 03:10:57;;;;;;;6.33;4.40;;;;;;;18.03;72.08;100173.39;126616;1090;114319;-78
2021/08/09 03:13:49;;;;;;;5.33;4.37;;;;;;;18.05;71.95;100187.33;126651;1090;102871;-78
2021/08/09 03:16:39;;;;;;;4.90;3.70;;;;;;;18.03;72.08;100189.22;126674;1089;114179;-78
2021/08/09 03:19:28;;;;;;;4.67;4.03;;;;;;;17.97;71.94;100186.98;126744;1089;103012;-78
2021/08/09 03:22:17;;;;;;;6.97;3.83;;;;;;;18.00;72.14;100184.14;126661;1088;114287;-78
2021/08/09 03:25:05;;;;;;;4.50;4.10;;;;;;;18.02;72.04;100191.96;126661;1090;102949;-78
2021/08/09 03:27:54;;;;;;;6.07;4.03;;;;;;;18.05;72.09;100211.08;126564;1089;114116;-78
2021/08/09 03:30:43;;;;;;;5.13;4.10;;;;;;;18.04;72.11;100219.95;126784;1087;103013;-78
2021/08/09 03:33:32;;;;;;;4.90;4.13;;;;;;;18.03;72.30;100220.89;126669;1087;114296;-78
2021/08/09 03:36:21;;;;;;;5.30;4.20;;;;;;;17.98;72.35;100225.63;126749;1088;102978;-78
2021/08/09 03:39:09;;;;;;;6.67;4.37;;;;;;;17.90;72.43;100217.33;126691;1087;114429;-78
2021/08/09 03:41:56;;;;;;;5.17;3.93;;;;;;;17.83;72.63;100229.22;126805;1088;104819;-78
2021/08/09 03:44:44;;;;;;;5.15;4.25;;;;;;;17.76;72.79;100226.09;126763;1089;102863;-78
2021/08/09 03:47:32;;;;;;;6.90;4.10;;;;;;;17.71;72.73;100222.90;126765;1089;113856;-78
2021/08/09 03:50:20;;;;;;;7.40;4.10;;;;;;;17.72;72.94;100223.75;126802;1089;102870;-78
2021/08/09 03:53:08;;;;;;;4.27;3.73;;;;;;;17.71;72.98;100224.70;126665;1090;114308;-78
2021/08/09 03:55:56;;;;;;;6.33;4.00;;;;;;;17.69;73.07;100226.58;126794;1090;102991;-78
2021/08/09 03:58:44;;;;;;;4.30;3.90;;;;;;;17.69;73.08;100223.95;126682;1089;114140;-79
2021/08/09 04:01:38;;;;;;;4.77;4.00;;;;;;;17.65;73.02;100217.14;126760;1090;102882;-79
2021/08/09 04:04:26;;;;;;;4.70;3.90;;;;;;;17.63;73.03;100217.23;126673;1089;114080;-78
2021/08/09 04:07:14;;;;;;;4.47;3.83;;;;;;;17.65;73.12;100210.07;126752;1088;103031;-78
2021/08/09 04:10:04;;;;;;;4.67;3.90;;;;;;;17.68;73.17;100225.73;126703;1090;114278;-78
2021/08/09 04:12:52;;;;;;;6.10;3.63;;;;;;;17.77;73.08;100222.54;126740;1090;102844;-79
2021/08/09 04:15:40;;;;;;;5.73;4.33;;;;;;;17.83;72.93;100216.03;126748;1090;114302;-79
2021/08/09 04:18:28;;;;;;;4.80;4.27;;;;;;;17.88;72.81;100221.00;126709;1088;102994;-79
2021/08/09 04:21:17;;;;;;;5.57;3.90;;;;;;;17.96;72.67;100227.52;126522;1090;114283;-79
2021/08/09 04:24:05;;;;;;;4.53;3.70;;;;;;;18.00;72.56;100221.09;126834;1090;101151;-79
2021/08/09 04:26:53;;;;;;;6.83;3.83;;;;;;;18.05;72.35;100224.28;126789;1090;102967;-79
2021/08/09 04:29:41;;;;;;;5.23;3.63;;;;;;;18.07;72.16;100224.17;126716;1088;114066;-79
2021/08/09 04:32:41;;;;;;;3.87;3.47;;;;;;;18.14;71.94;100237.85;126790;1090;102980;-79
2021/08/09 04:35:30;;;;;;;5.10;3.63;;;;;;;18.19;71.76;100244.52;126653;1088;113541;-79
2021/08/09 04:38:19;;;;;;;4.97;4.10;;;;;;;18.24;71.68;100236.30;126760;1090;103316;-79
2021/08/09 04:41:09;;;;;;;5.60;4.03;;;;;;;18.38;71.69;100230.99;126693;1089;114433;-79
2021/08/09 04:43:58;;;;;;;5.40;4.10;;;;;;;18.45;71.26;100234.91;126720;1089;103026;-79
2021/08/09 04:46:47;;;;;;;4.53;3.80;;;;;;;18.55;70.80;100230.74;126648;1089;114201;-77
2021/08/09 04:49:35;;;;;;;7.07;4.00;;;;;;;18.63;70.85;100233.75;126787;1090;103014;-78
2021/08/09 04:52:24;;;;;;;3.90;3.60;;;;;;;18.81;70.84;100234.33;126707;1089;114292;-78
2021/08/09 04:55:13;;;;;;;5.63;4.00;;;;;;;18.99;70.36;100234.90;126761;1088;102981;-78
2021/08/09 04:58:01;;;;;;;5.87;4.30;;;;;;;19.15;69.97;100232.06;126781;1088;114236;-79
2021/08/09 05:00:49;;;;;;;5.43;4.27;;;;;;;19.33;69.27;100223.73;126851;1089;102870;-79
2021/08/09 05:03:39;;;;;;;4.37;3.50;;;;;;;19.57;69.04;100229.17;126656;1088;113164;-79
2021/08/09 05:06:35;;;;;;;4.80;3.70;;;;;;;20.38;68.99;100231.30;126800;1089;102934;-78
2021/08/09 05:09:22;;;;;;;5.23;3.33;;;;;;;21.75;66.49;100227.16;126695;1090;114497;-78
2021/08/09 05:12:11;;;;;;;5.23;3.87;;;;;;;22.34;64.94;100230.36;126845;1090;102858;-79
2021/08/09 05:15:01;;;;;;;4.90;3.80;;;;;;;22.93;63.12;100226.42;126629;1087;102991;-79
2021/08/09 05:17:50;;;;;;;5.53;3.43;;;;;;;23.21;61.95;100231.95;126659;1090;112880;-78
2021/08/09 05:20:38;;;;;;;4.13;3.43;;;;;;;23.77;61.21;100228.06;126807;1089;103388;-78
2021/08/09 05:23:27;;;;;;;3.50;3.00;;;;;;;24.80;59.56;100231.25;126678;1088;114084;-79
2021/08/09 05:26:17;;;;;;;4.40;3.13;;;;;;;25.14;57.81;100238.84;126826;1090;102866;-79
2021/08/09 05:29:05;;;;;;;5.23;3.17;;;;;;;26.08;56.37;100232.48;126725;1089;114144;-79
2021/08/09 05:31:53;;;;;;;6.20;3.00;;;;;;;27.14;55.09;100230.05;126761;1090;102660;-79
2021/08/09 05:34:42;;;;;;;4.93;3.30;;;;;;;27.91;52.76;100235.38;126706;1090;114470;-79
2021/08/09 05:37:32;;;;;;;3.87;2.93;;;;;;;28.76;50.86;100229.92;126785;1089;101908;-79
2021/08/09 05:40:20;;;;;;;5.70;2.87;;;;;;;30.04;50.15;100237.98;126732;1090;114969;-79
2021/08/09 05:43:08;;;;;;;3.40;2.70;;;;;;;31.45;47.63;100222.31;126804;1090;101936;-79
2021/08/09 05:45:56;;;;;;;4.97;2.80;;;;;;;32.15;43.89;100231.78;126684;1089;114220;-79
2021/08/09 05:48:45;;;;;;;6.20;2.97;;;;;;;32.25;43.09;100232.30;126790;1088;102927;-79
2021/08/09 05:51:38;;;;;;;3.43;2.70;;;;;;;33.12;42.19;100225.92;126695;1090;114284;-79
2021/08/09 05:54:26;;;;;;;5.27;3.10;;;;;;;34.15;40.28;100231.37;126826;1089;102852;-79
2021/08/09 05:57:14;;;;;;;3.77;2.80;;;;;;;34.88;38.09;100233.45;126776;1089;102989;-79
2021/08/09 06:00:04;;;;;;;6.37;2.67;;;;;;;35.61;36.49;100231.52;126745;1090;114001;-79
2021/08/09 06:03:01;;;;;;;4.27;2.77;;;;;;;36.21;36.87;100234.85;126799;1090;102654;-79
2021/08/09 06:05:58;;;;;;;;;;;;;;;37.01;35.34;100230.63;126791;1089;114061;-79
2021/08/09 06:08:50;;;;;;;5.23;2.57;;;;;;;37.83;34.22;100238.63;126816;1090;103415;-79
2021/08/09 06:11:42;;;;;;;3.40;2.33;;;;;;;38.23;32.54;100238.97;126801;1089;114128;-80
2021/08/09 06:14:29;;;;;;;3.20;2.30;;;;;;;38.66;32.16;100244.26;126847;1090;102673;-80
2021/08/09 06:17:18;;;;;;;3.87;2.27;;;;;;;39.04;31.78;100240.30;126802;1090;114385;-80
2021/08/09 06:20:07;;;;;;;3.63;2.10;;;;;;;39.53;30.63;100245.34;126696;1090;103393;-80
2021/08/09 06:22:57;;;;;;;5.50;2.15;;;;;;;39.94;30.29;100246.20;126766;1089;113143;-80
2021/08/09 06:25:45;;;;;;;2.50;2.17;;;;;;;40.34;29.28;100245.36;126839;1088;102886;-80
2021/08/09 06:28:35;;;;;;;4.13;2.20;;;;;;;40.66;28.66;100243.80;126676;1089;114250;-79
2021/08/09 06:31:25;;;;;;;4.83;2.37;;;;;;;40.97;28.15;100247.09;126811;1090;103054;-79
2021/08/09 06:34:15;;;;;;;3.77;1.80;;;;;;;41.10;27.31;100249.46;126647;1089;114469;-79
2021/08/09 06:37:04;;;;;;;5.47;2.40;;;;;;;41.15;26.97;100246.83;126805;1089;103338;-79
2021/08/09 06:39:52;;;;;;;2.83;2.03;;;;;;;41.50;26.90;100246.55;126741;1088;114286;-79
2021/08/09 06:42:40;;;;;;;4.50;2.20;;;;;;;41.59;25.82;100244.19;126805;1090;102683;-79
2021/08/09 06:45:43;;;;;;;3.67;2.07;;;;;;;41.47;25.76;100254.41;126813;1089;103096;-79
2021/08/09 06:48:31;;;;;;;2.23;2.00;;;;;;;41.54;25.64;100249.60;126787;1089;102878;-79
2021/08/09 06:51:24;;;;;;;3.70;2.00;;;;;;;42.22;25.68;100256.55;126689;1089;102868;-79
2021/08/09 06:54:13;;;;;;;5.23;1.80;;;;;;;42.33;24.81;100263.77;126671;1090;114440;-79
2021/08/09 06:57:03;;;;;;;4.77;2.00;;;;;;;42.28;23.97;100260.98;126741;1089;103040;-79
2021/08/09 06:59:51;;;;;;;4.60;2.10;;;;;;;42.49;24.84;100260.13;126568;1088;113170;-79
2021/08/09 07:02:41;;;;;;;4.93;2.13;;;;;;;43.03;23.92;100270.23;126796;1090;102881;-79
2021/08/09 07:05:29;;;;;;;2.83;1.90;;;;;;;43.06;23.16;100273.27;126672;1087;114295;-79
2021/08/09 07:08:17;;;;;;;4.97;1.90;;;;;;;43.16;22.85;100274.45;126815;1089;103409;-79
2021/08/09 07:11:06;;;;;;;2.77;1.70;;;;;;;43.26;23.27;100277.25;126560;1090;114444;-79
2021/08/09 07:13:53;;;;;;;3.87;1.90;;;;;;;43.17;22.56;100273.36;126747;1088;102770;-79
2021/08/09 07:16:41;;;;;;;3.33;1.80;;;;;;;42.87;22.39;100282.97;126699;1090;114268;-79
2021/08/09 07:19:30;;;;;;;3.40;1.90;;;;;;;42.65;22.70;100283.05;126803;1090;102948;-79
2021/08/09 07:22:18;;;;;;;2.00;1.57;;;;;;;42.70;22.79;100277.60;126646;1090;114345;-79
2021/08/09 07:25:08;;;;;;;3.93;1.87;;;;;;;42.84;22.35;100278.01;126799;1090;103026;-78
2021/08/09 07:27:57;;;;;;;3.00;2.03;;;;;;;42.98;22.62;100281.18;126805;1088;102875;-79
2021/08/09 07:30:45;;;;;;;3.67;1.90;;;;;;;43.04;22.20;100280.95;126658;1089;113903;-78
2021/08/09 07:33:34;;;;;;;5.10;2.03;;;;;;;43.23;21.57;100283.28;126797;1089;102936;-78
2021/08/09 07:36:21;;;;;;;4.03;2.00;;;;;;;43.06;21.83;100284.25;126608;1090;114197;-79
2021/08/09 07:39:09;;;;;;;1.93;1.63;;;;;;;43.26;21.98;100277.25;126737;1090;102886;-79
2021/08/09 07:41:57;;;;;;;1.83;1.70;;;;;;;43.22;21.59;100284.37;126692;1090;114122;-79
2021/08/09 07:44:47;;;;;;;3.87;1.73;;;;;;;43.16;21.61;100279.95;126790;1090;102807;-79
2021/08/09 07:47:35;;;;;;;3.37;1.77;;;;;;;42.93;21.53;100284.72;126685;1090;114144;-79
2021/08/09 07:50:24;;;;;;;1.85;1.40;;;;;;;42.75;21.08;100283.16;126804;1089;101837;-79
2021/08/09 07:53:12;;;;;;;2.07;1.70;;;;;;;42.63;21.64;100295.38;126704;1089;114292;-79
2021/08/09 07:56:01;;;;;;;2.47;1.30;;;;;;;42.75;21.93;100296.05;126775;1090;102913;-78
2021/08/09 07:58:49;;;;;;;1.60;1.40;;;;;;;42.74;21.64;100286.98;126654;1090;114703;-78
2021/08/09 08:01:37;;;;;;;3.33;1.53;;;;;;;42.64;21.41;100294.28;126762;1089;102955;-78
2021/08/09 08:04:25;;;;;;;1.93;1.50;;;;;;;42.59;21.02;100294.23;126686;1090;114465;-78
2021/08/09 08:07:13;;;;;;;2.73;1.60;;;;;;;42.63;21.39;100303.59;126812;1088;102916;-79
2021/08/09 08:10:02;;;;;;;2.23;1.53;;;;;;;42.43;21.04;100294.05;126809;1090;102997;-79
2021/08/09 08:12:51;;;;;;;2.03;1.50;;;;;;;41.68;21.27;100302.95;126648;1090;114017;-79
2021/08/09 08:15:40;;;;;;;5.67;1.70;;;;;;;41.45;21.65;100294.90;126803;1089;101186;-79
2021/08/09 08:18:28;;;;;;;5.73;1.80;;;;;;;41.47;22.01;100296.30;126589;1090;113039;-79
2021/08/09 08:21:17;;;;;;;3.40;1.77;;;;;;;41.53;21.80;100302.70;126764;1087;102951;-79
2021/08/09 08:24:05;;;;;;;3.57;1.37;;;;;;;41.34;21.48;100311.19;126741;1089;113200;-80
2021/08/09 08:26:55;;;;;;;2.77;1.60;;;;;;;41.14;22.27;100299.89;126816;1090;102866;-79
2021/08/09 08:29:43;;;;;;;2.07;1.50;;;;;;;41.01;22.48;100301.04;126688;1090;114241;-79
2021/08/09 08:32:33;;;;;;;4.07;1.40;;;;;;;40.93;22.44;100317.84;126900;1087;102881;-79
2021/08/09 08:35:21;;;;;;;2.15;1.50;;;;;;;40.67;21.63;100308.34;126669;1088;113394;-79
2021/08/09 08:38:09;;;;;;;2.27;1.40;;;;;;;40.61;22.04;100316.70;126820;1088;102858;-79
2021/08/09 08:40:59;;;;;;;1.97;1.23;;;;;;;40.70;22.21;100313.31;126706;1088;114722;-79
2021/08/09 08:43:47;;;;;;;2.20;1.30;;;;;;;40.86;22.39;100319.09;126826;1089;100692;-79
2021/08/09 08:46:42;;;;;;;2.47;1.70;;;;;;;40.62;21.93;100316.45;126712;1088;114426;-79
2021/08/09 08:49:31;;;;;;;3.17;1.50;;;;;;;40.54;22.71;100327.77;126723;1088;102852;-79
2021/08/09 08:52:20;;;;;;;1.57;1.20;;;;;;;40.38;22.33;100334.80;126787;1088;102849;-79
2021/08/09 08:55:08;;;;;;;2.37;1.40;;;;;;;40.33;21.71;100336.61;126716;1089;113908;-79
2021/08/09 08:57:56;;;;;;;2.75;1.30;;;;;;;39.96;22.22;100331.48;126791;1089;102848;-79
2021/08/09 09:00:48;;;;;;;4.00;1.30;;;;;;;39.94;22.56;100333.59;126716;1090;113099;-79
2021/08/09 09:03:40;;;;;;;4.50;1.50;;;;;;;39.98;22.29;100321.14;126643;1090;102964;-79
2021/08/09 09:06:28;;;;;;;3.67;1.60;;;;;;;39.44;22.10;100334.05;126664;1090;113283;-79
2021/08/09 09:09:23;;;;;;;1.93;1.30;;;;;;;39.16;22.17;100332.02;126808;1090;102964;-79
2021/08/09 09:12:19;;;;;;;1.53;1.23;;;;;;;38.96;22.88;100337.76;126719;1090;114441;-80
2021/08/09 09:15:08;;;;;;;2.20;1.80;;;;;;;38.95;23.35;100338.79;126682;1090;102888;-79
2021/08/09 09:17:56;;;;;;;3.10;1.40;;;;;;;38.94;22.74;100350.77;126619;1089;114139;-79
2021/08/09 09:20:43;;;;;;;2.50;1.30;;;;;;;38.92;23.35;100355.63;126670;1089;102916;-78
2021/08/09 09:23:31;;;;;;;6.00;1.20;;;;;;;39.03;23.59;100350.45;126718;1088;113404;-78
2021/08/09 09:26:25;;;;;;;1.23;1.00;;;;;;;39.09;23.11;100347.64;126861;1090;103029;-79
2021/08/09 09:29:16;;;;;;;1.38;1.00;;;;;;;39.22;23.16;100352.06;126675;1089;114272;-78
2021/08/09 09:32:16;;;;;;;3.30;1.10;;;;;;;39.35;22.51;100345.56;126783;1089;103146;-79
2021/08/09 09:35:04;;;;;;;1.65;1.25;;;;;;;39.25;22.12;100357.05;126714;1090;113225;-79
2021/08/09 09:37:53;;;;;;;4.87;1.10;;;;;;;38.90;22.09;100355.03;126642;1088;102993;-79
2021/08/09 09:40:42;;;;;;;4.27;1.20;;;;;;;38.49;22.24;100355.78;126831;1090;102857;-79
2021/08/09 09:43:43;;;;;;;1.47;1.10;;;;;;;38.15;22.26;100354.49;126808;1090;102850;-79
2021/08/09 09:46:30;;;;;;;2.67;1.30;;;;;;;37.84;23.20;100355.45;126786;1090;102993;-78
2021/08/09 09:49:32;;;;;;;1.70;1.20;;;;;;;37.89;23.17;100349.35;126683;1090;114272;-78
2021/08/09 09:52:35;;;;;;;1.50;1.20;;;;;;;37.83;23.12;100361.13;126785;1089;102920;-79
2021/08/09 09:55:23;;;;;;;2.43;1.17;;;;;;;37.72;23.41;100360.82;126675;1088;114269;-78
2021/08/09 09:58:11;;;;;;;1.60;1.30;;;;;;;38.02;23.46;100357.36;126829;1088;102873;-78
2021/08/09 10:01:00;;;;;;;1.87;1.00;;;;;;;37.86;23.31;100355.22;126654;1090;114280;-78
2021/08/09 10:03:47;;;;;;;2.37;1.03;;;;;;;37.76;23.02;100356.59;126772;1089;102937;-79
2021/08/09 10:06:39;;;;;;;2.60;1.00;;;;;;;37.76;22.56;100356.59;126761;1090;114131;-79
2021/08/09 10:09:30;;;;;;;1.37;1.07;;;;;;;37.72;22.61;100359.95;126656;1089;102905;-78
2021/08/09 10:12:24;;;;;;;1.87;1.10;;;;;;;37.58;22.66;100366.57;126702;1090;114271;-79
2021/08/09 10:15:18;;;;;;;3.73;1.20;;;;;;;37.43;22.79;100358.73;126707;1090;103014;-79
2021/08/09 10:18:07;;;;;;;2.00;1.20;;;;;;;37.59;22.89;100369.06;126689;1089;114461;-79
2021/08/09 10:20:56;;;;;;;2.00;0.93;;;;;;;37.53;22.05;100361.80;126752;1089;102930;-79
2021/08/09 10:23:46;;;;;;;1.10;0.90;;;;;;;37.16;21.86;100375.22;126693;1089;114356;-78
2021/08/09 10:26:38;;;;;;;2.73;1.00;;;;;;;36.69;22.20;100372.98;126807;1089;103010;-79
2021/08/09 10:29:26;;;;;;;2.10;1.13;;;;;;;36.11;22.64;100373.80;126663;1089;114361;-79
2021/08/09 10:32:19;;;;;;;2.17;1.10;;;;;;;35.89;23.38;100375.91;126777;1090;103004;-79
2021/08/09 10:35:51;;;;;;;1.70;1.37;;;;;;;35.71;23.38;100365.67;126787;1090;102900;-79
2021/08/09 10:38:44;;;;;;;1.67;1.20;;;;;;;35.36;23.51;100367.77;126813;1090;101666;-79
2021/08/09 10:41:35;;;;;;;2.03;1.27;;;;;;;35.16;23.51;100371.47;126761;1090;101073;-79
2021/08/09 10:44:26;;;;;;;5.93;1.80;;;;;;;34.98;23.99;100381.03;126751;1090;102878;-79
2021/08/09 10:47:47;;;;;;;2.17;1.10;;;;;;;34.41;24.80;100373.31;126860;1090;103089;-79
2021/08/09 10:50:42;;;;;;;3.88;1.60;;;;;;;33.99;25.09;100375.14;126685;1088;113967;-79
2021/08/09 10:53:46;;;;;;;2.57;1.40;;;;;;;33.81;25.39;100385.59;126773;1089;102857;-79
2021/08/09 10:56:46;;;;;;;2.90;1.50;;;;;;;33.73;25.88;100380.31;126639;1090;114129;-80
2021/08/09 10:59:47;;;;;;;4.07;1.80;;;;;;;33.46;25.39;100381.98;126821;1090;102921;-80
2021/08/09 11:02:36;;;;;;;2.57;1.50;;;;;;;32.92;26.07;100377.05;126718;1090;114193;-79
2021/08/09 11:05:24;;;;;;;2.00;1.53;;;;;;;32.33;26.43;100382.55;126634;1090;103103;-79
2021/08/09 11:08:27;;;;;;;2.07;1.40;;;;;;;31.96;27.33;100383.41;126693;1087;114256;-78
2021/08/09 11:11:16;;;;;;;1.57;1.23;;;;;;;31.82;27.77;100385.09;126809;1087;102875;-79
2021/08/09 11:14:11;;;;;;;2.30;1.30;;;;;;;31.75;27.96;100384.96;126603;1090;113385;-78
2021/08/09 11:17:00;;;;;;;2.33;1.40;;;;;;;31.67;28.26;100382.33;126656;1090;102660;-79
2021/08/09 11:19:48;;;;;;;2.70;1.30;;;;;;;31.54;28.03;100382.09;126628;1089;113313;-78
2021/08/09 11:22:36;;;;;;;3.97;1.30;;;;;;;31.43;27.52;100385.24;126772;1089;102855;-78
2021/08/09 11:25:42;;;;;;;0.77;0.77;;;;;;;31.14;29.02;100389.45;126668;1090;115244;-78
2021/08/09 11:28:31;;;;;;;3.20;1.20;;;;;;;31.23;28.00;100387.55;126795;1090;102881;-79
2021/08/09 11:31:19;;;;;;;3.43;1.07;;;;;;;31.06;28.23;100386.83;126539;1089;114383;-80
2021/08/09 11:34:07;;;;;;;2.60;1.40;;;;;;;31.03;26.80;100391.70;126779;1089;102888;-79
2021/08/09 11:37:04;;;;;;;10.90;1.45;;;;;;;30.67;27.53;100392.25;126704;1090;113245;-79
2021/08/09 11:39:52;;;;;;;2.23;1.40;;;;;;;30.44;28.41;100396.70;126739;1089;102913;-79
2021/08/09 11:43:10;;;;;;;2.93;1.20;;;;;;;30.34;28.42;100394.20;126722;1090;114257;-79
2021/08/09 11:46:03;;;;;;;3.40;1.40;;;;;;;30.48;28.95;100393.48;126810;1089;103003;-80
2021/08/09 11:48:52;;;;;;;3.97;1.27;;;;;;;30.47;28.31;100399.88;126700;1089;114544;-79
2021/08/09 11:51:40;;;;;;;3.43;1.10;;;;;;;30.16;28.94;100394.42;126777;1089;102935;-79
2021/08/09 11:54:38;;;;;;;2.73;1.13;;;;;;;30.07;28.90;100399.00;126603;1089;114312;-78
2021/08/09 11:57:40;;;;;;;1.43;1.13;;;;;;;30.10;28.93;100392.43;126712;1087;102852;-78
2021/08/09 12:00:40;;;;;;;2.50;1.27;;;;;;;30.11;28.73;100390.58;126662;1088;113297;-79
2021/08/09 12:03:28;;;;;;;1.43;1.13;;;;;;;29.91;29.00;100393.61;126695;1089;102845;-79
2021/08/09 12:06:21;;;;;;;2.00;1.40;;;;;;;29.97;29.77;100400.15;126755;1090;101807;-79
2021/08/09 12:09:12;;;;;;;3.30;1.40;;;;;;;30.17;30.06;100404.20;126638;1090;102858;-79
2021/08/09 12:12:04;;;;;;;2.40;1.37;;;;;;;30.35;29.70;100401.29;126775;1089;102843;-79
2021/08/09 12:15:02;;;;;;;1.97;1.33;;;;;;;30.25;28.44;100408.70;126676;1090;114606;-79
2021/08/09 12:18:07;;;;;;;2.55;1.20;;;;;;;29.97;28.88;100406.37;126767;1088;102950;-78
2021/08/09 12:21:12;;;;;;;1.77;1.20;;;;;;;29.77;29.29;100405.05;126529;1090;113259;-80
2021/08/09 12:24:01;;;;;;;2.27;1.40;;;;;;;29.63;29.63;100411.98;126767;1090;102889;-79
2021/08/09 12:26:51;;;;;;;2.20;1.23;;;;;;;29.72;29.88;100400.20;126767;1090;114512;-79
2021/08/09 12:29:38;;;;;;;1.47;1.20;;;;;;;29.59;29.71;100404.39;126698;1090;100774;-80
2021/08/09 12:32:28;;;;;;;2.00;1.20;;;;;;;29.39;29.90;100403.86;126538;1087;114546;-79
2021/08/09 12:35:18;;;;;;;3.27;1.23;;;;;;;29.46;29.64;100415.67;126802;1090;101114;-79
2021/08/09 12:38:07;;;;;;;1.27;1.00;;;;;;;29.50;30.15;100417.00;126639;1089;113265;-79
2021/08/09 12:40:57;;;;;;;2.57;1.50;;;;;;;29.55;29.67;100411.13;126763;1090;102837;-80
2021/08/09 12:43:45;;;;;;;2.63;1.30;;;;;;;29.59;30.49;100409.77;126699;1088;114207;-79
2021/08/09 12:46:33;;;;;;;2.27;1.10;;;;;;;29.61;30.42;100418.50;126836;1089;102921;-79
2021/08/09 12:49:29;;;;;;;2.13;1.30;;;;;;;29.71;30.67;100411.95;126725;1089;114546;-79
2021/08/09 12:52:17;;;;;;;2.63;1.20;;;;;;;29.79;30.10;100421.85;126691;1088;102861;-79
2021/08/09 12:55:05;;;;;;;1.80;1.10;;;;;;;29.74;29.63;100413.46;126700;1090;114311;-79
2021/08/09 12:57:53;;;;;;;2.30;1.17;;;;;;;29.70;28.33;100422.88;126772;1090;102688;-79